Карточка аэропорта UMKK

Внимание!
Информация на этой странице в стадии наполнения.
Если вы не увидели какой-то информации, или заметили неточность - пожалуйста сообщите нам!
Спасибо!
Команда RU-STAFF
Название аэропортаХраброво
Название аэропорта (англ.)Khrabrovo
Превышение43 ft. (13.1 m.)
Координаты54°53.4', 20°35.55'
Высота перехода4000ft
Эшелон переходаFL50 (QNH>=1013hPa); FL60 (QNH<1013hPa); FL50 (QNH<977hPa);
Коды ответчика6620-6637
Зона ОрВДКалининград РПИ (UMKK)
Данные METARUMKK 172030Z 19002MPS 9999 BKN051CB 15/15 Q1013 R24/19//95 NOSIG RMK QFE759/1012
Проноз погоды (TAF)UMKK 171957Z 1721/1821 VRB01MPS 6000 BKN020CB TEMPO 1721/1724 -TSRA BECMG 1800/1802 24003G08MPS TEMPO 1800/1804 0300 FG BKN002 BECMG 1804/1806 26005G10MPS TEMPO 1808/1818 -TSRA BKN016CB BECMG 1815/1817 VRB01MPS
NOTAMshow/hide NOTAM
AWOS   TABLE

Информация о ВПП

ВПП Длина ВПП (м.) Покрытие Курс ВПП Частота ILS
063350Асфальтобетон60110.3
243350Асфальтобетон240109.5

Диспетчерские позиции

Позывной Наименование органа УВД Частота
UMKK_TWRКалининград-Вышка127.2
UMKK_APPКалининград-Подход126.0



Спутниковое изображение